This is the latest recevied weather packets stored in our database for station/object M0SDM. If no packets are shown the sender has not sent any weather packets the latest 10 day(s).
| Time | Temp. | Humidity | Pressure | Rain* | Wind** | Luminosity | Snow |
|---|---|---|---|---|---|---|---|
| 1777662621 | 16.67° C | 69% | 1015.4 hPa | 0 mm | - | - | - |
| 1777661721 | 17.78° C | 68% | 1015.1 hPa | 0 mm | - | - | - |
| 1777660821 | 21.11° C | 53% | 1014.9 hPa | 0 mm | - | - | - |
| 1777659921 | 21.67° C | 52% | 1014.5 hPa | 0 mm | - | - | - |
| 1777659021 | 22.78° C | 48% | 1014.3 hPa | 0 mm | - | - | - |
| 1777658121 | 22.78° C | 48% | 1014.1 hPa | 0 mm | - | - | - |
| 1777657221 | 23.33° C | 46% | 1014.2 hPa | 0 mm | - | - | - |
| 1777656321 | 23.33° C | 46% | 1014 hPa | 0 mm | - | - | - |
| 1777655421 | 23.33° C | 43% | 1014 hPa | 0 mm | - | - | - |
| 1777654521 | 23.89° C | 40% | 1013.9 hPa | 0 mm | - | - | - |
| 1777653621 | 24.44° C | 39% | 1013.8 hPa | 0 mm | - | - | - |
| 1777652721 | 25° C | 38% | 1013.7 hPa | 0 mm | - | - | - |
| 1777651821 | 24.44° C | 38% | 1013.9 hPa | 0 mm | - | - | - |
| 1777650921 | 25° C | 38% | 1013.7 hPa | 0 mm | - | - | - |
| 1777650021 | 25.56° C | 39% | 1013.7 hPa | 0 mm | - | - | - |
| 1777649121 | 25.56° C | 38% | 1013.8 hPa | 0 mm | - | - | - |
| 1777648221 | 25° C | 39% | 1014.4 hPa | 0 mm | - | - | - |
| 1777647321 | 25.56° C | 37% | 1014.3 hPa | 0 mm | - | - | - |
| 1777646421 | 25° C | 39% | 1014.7 hPa | 0 mm | - | - | - |
| 1777645521 | 25° C | 40% | 1014.9 hPa | 0 mm | - | - | - |
| 1777644621 | 25° C | 38% | 1015.2 hPa | 0 mm | - | - | - |
| 1777643721 | 25° C | 38% | 1015.4 hPa | 0 mm | - | - | - |
| 1777642821 | 24.44° C | 38% | 1015.7 hPa | 0 mm | - | - | - |
| 1777641921 | 24.44° C | 38% | 1015.7 hPa | 0 mm | - | - | - |
| 1777641021 | 24.44° C | 38% | 1016.1 hPa | 0 mm | - | - | - |
* Rain latest hour (hover to see other rain measurements)
** Current wind speed in m/s (hover to see current wind gust speed)